createdAt,value
2019-01-24T00:01:23.920Z,85.03
2019-01-24T00:03:50.178Z,95.33
2019-01-24T00:06:27.315Z,92.87
2019-01-24T00:08:53.431Z,83.70
2019-01-24T00:11:19.643Z,90.50
2019-01-24T00:13:45.760Z,81.27
2019-01-24T00:16:11.959Z,83.47
2019-01-24T00:18:56.001Z,86.53
2019-01-24T00:21:22.116Z,85.00
2019-01-24T00:23:54.736Z,84.70
2019-01-24T00:26:20.923Z,91.67
2019-01-24T00:28:47.015Z,85.70
2019-01-24T00:31:13.215Z,81.77
2019-01-24T00:33:39.328Z,85.43
2019-01-24T00:36:05.523Z,82.60
2019-01-24T00:38:34.224Z,87.90
2019-01-24T00:41:00.323Z,72.97
2019-01-24T00:43:34.092Z,78.80
2019-01-24T00:46:00.177Z,87.60
2019-01-24T00:48:26.279Z,78.53
2019-01-24T00:51:03.241Z,82.33
2019-01-24T00:53:27.059Z,87.57
2019-01-24T00:55:53.364Z,82.17
2019-01-24T00:58:19.735Z,80.03
2019-01-24T01:00:45.917Z,86.97
2019-01-24T01:03:12.128Z,88.73
2019-01-24T01:05:41.281Z,95.77
2019-01-24T01:08:07.475Z,89.63
2019-01-24T01:10:36.577Z,98.07
2019-01-24T01:13:08.991Z,94.73
2019-01-24T01:15:45.384Z,90.60
2019-01-24T01:18:11.651Z,97.20
2019-01-24T01:20:37.862Z,93.20
2019-01-24T01:23:04.083Z,91.17
2019-01-24T01:25:43.773Z,97.80
2019-01-24T01:28:07.533Z,97.20
2019-01-24T01:30:33.647Z,103.07
2019-01-24T01:33:10.630Z,96.30
2019-01-24T01:35:39.823Z,96.20
2019-01-24T01:38:06.044Z,97.23
2019-01-24T01:40:34.258Z,94.83
2019-01-24T01:43:00.355Z,101.67
2019-01-24T01:45:26.551Z,92.70
2019-01-24T01:47:52.634Z,98.90
2019-01-24T01:50:35.247Z,100.63
2019-01-24T01:53:00.429Z,88.40
2019-01-24T01:55:30.771Z,110.17
2019-01-24T01:58:03.256Z,98.83
2019-01-24T02:00:29.469Z,101.03
2019-01-24T02:02:56.611Z,94.43
2019-01-24T02:05:22.912Z,99.47
2019-01-24T02:07:53.252Z,101.20
2019-01-24T02:10:20.243Z,100.63
2019-01-24T02:13:07.099Z,106.23
2019-01-24T02:15:48.764Z,106.63
2019-01-24T02:18:15.080Z,106.70
2019-01-24T02:20:41.301Z,108.77
2019-01-24T02:23:07.548Z,100.37
2019-01-24T02:25:34.052Z,111.33
2019-01-24T02:28:03.871Z,110.10
2019-01-24T02:30:51.684Z,102.40
2019-01-24T02:33:17.840Z,109.53
2019-01-24T02:35:44.147Z,112.67
2019-01-24T02:38:17.484Z,114.50
2019-01-24T02:40:57.191Z,114.30
2019-01-24T02:43:25.372Z,112.67
2019-01-24T02:45:51.648Z,117.27
2019-01-24T02:48:17.741Z,116.13
2019-01-24T02:50:58.854Z,131.70
2019-01-24T02:53:25.008Z,127.37
2019-01-24T02:55:51.131Z,123.37
2019-01-24T02:58:17.232Z,119.13
2019-01-24T03:00:47.719Z,126.57
2019-01-24T03:03:13.824Z,135.00
2019-01-24T03:05:39.915Z,119.17
2019-01-24T03:08:28.884Z,119.67
2019-01-24T03:10:45.570Z,129.20
2019-01-24T03:13:11.682Z,123.47
2019-01-24T03:16:03.700Z,121.30
2019-01-24T03:18:30.784Z,125.63
2019-01-24T03:20:56.867Z,120.77
2019-01-24T03:23:29.322Z,124.80
2019-01-24T03:25:56.444Z,117.67
2019-01-24T03:28:40.970Z,117.47
2019-01-24T03:31:07.305Z,121.57
2019-01-24T03:33:35.505Z,115.87
2019-01-24T03:36:03.271Z,118.93
2019-01-24T03:38:29.488Z,117.20
2019-01-24T03:40:55.663Z,120.00
2019-01-24T03:43:21.766Z,114.17
2019-01-24T03:45:47.864Z,110.50
2019-01-24T03:48:20.028Z,117.53
2019-01-24T03:50:46.172Z,116.23
2019-01-24T03:53:20.118Z,125.40
2019-01-24T03:55:46.384Z,121.17
2019-01-24T03:58:18.246Z,119.47
2019-01-24T04:00:44.434Z,123.87
2019-01-24T04:03:10.552Z,127.00
2019-01-24T04:05:36.681Z,126.00
2019-01-24T04:08:02.933Z,107.13
2019-01-24T04:10:33.002Z,108.03
2019-01-24T04:12:59.193Z,115.87
2019-01-24T04:15:25.500Z,113.63
2019-01-24T04:17:51.801Z,110.77
2019-01-24T04:20:18.085Z,121.40
2019-01-24T04:22:44.453Z,116.07
2019-01-24T04:25:10.764Z,107.03
2019-01-24T04:27:36.863Z,116.40
2019-01-24T04:30:04.251Z,119.80
2019-01-24T04:32:35.724Z,112.53
2019-01-24T04:35:02.078Z,109.30
2019-01-24T04:37:28.156Z,109.63
2019-01-24T04:39:54.264Z,118.50
2019-01-24T04:42:20.398Z,114.07
2019-01-24T04:44:46.459Z,122.60
2019-01-24T04:47:12.551Z,108.60
2019-01-24T04:49:40.688Z,114.70
2019-01-24T04:52:11.975Z,114.47
2019-01-24T04:54:38.065Z,126.53
2019-01-24T04:57:04.524Z,111.43
2019-01-24T04:59:30.609Z,111.90
2019-01-24T05:02:04.852Z,107.10
2019-01-24T05:04:31.000Z,112.70
2019-01-24T05:06:57.189Z,111.37
2019-01-24T05:09:23.517Z,110.87
2019-01-24T05:11:50.101Z,111.03
2019-01-24T05:14:16.676Z,105.73
2019-01-24T05:16:43.307Z,115.00
2019-01-24T05:19:09.912Z,110.30
2019-01-24T05:21:39.405Z,108.83
2019-01-24T05:24:06.042Z,102.80
2019-01-24T05:26:32.734Z,106.93
2019-01-24T05:29:02.981Z,113.90
2019-01-24T05:31:29.389Z,103.57
2019-01-24T05:33:55.774Z,102.57
2019-01-24T05:36:22.173Z,102.53
2019-01-24T05:38:48.486Z,108.93
2019-01-24T05:41:14.794Z,104.73
2019-01-24T05:43:41.244Z,104.30
2019-01-24T05:46:07.467Z,98.67
2019-01-24T05:48:33.846Z,110.03
2019-01-24T05:51:00.126Z,98.60
2019-01-24T05:53:26.707Z,106.43
2019-01-24T05:55:53.041Z,102.23
2019-01-24T05:58:19.472Z,106.27
2019-01-24T06:00:45.982Z,110.67
2019-01-24T06:03:12.400Z,105.97
2019-01-24T06:05:41.929Z,102.43
2019-01-24T06:08:09.637Z,117.67
2019-01-24T06:10:35.971Z,106.37
2019-01-24T06:13:02.749Z,103.93
2019-01-24T06:15:29.144Z,109.80
2019-01-24T06:17:55.488Z,112.47
2019-01-24T06:20:21.974Z,112.67
2019-01-24T06:22:48.335Z,112.00
2019-01-24T06:25:14.828Z,105.10
2019-01-24T06:27:41.277Z,108.97
2019-01-24T06:30:09.724Z,115.47
2019-01-24T06:32:36.124Z,97.33
2019-01-24T06:35:02.744Z,105.33
2019-01-24T06:37:29.180Z,111.80
2019-01-24T06:39:55.904Z,95.20
2019-01-24T06:42:22.252Z,100.10
2019-01-24T06:44:48.541Z,106.47
2019-01-24T06:47:14.965Z,101.40
2019-01-24T06:49:41.348Z,100.40
2019-01-24T06:52:07.947Z,104.63
2019-01-24T06:54:34.301Z,104.63
2019-01-24T06:57:00.642Z,98.73
2019-01-24T06:59:27.032Z,113.50
2019-01-24T07:01:53.454Z,108.70
2019-01-24T07:04:19.731Z,106.60
2019-01-24T07:06:46.073Z,106.33
2019-01-24T07:09:12.237Z,102.40
2019-01-24T07:11:38.581Z,104.30
2019-01-24T07:14:05.086Z,103.80
2019-01-24T07:16:32.250Z,104.13
2019-01-24T07:18:58.596Z,102.13
2019-01-24T07:21:25.180Z,107.10
2019-01-24T07:23:51.661Z,94.97
2019-01-24T07:26:18.144Z,103.23
2019-01-24T07:28:44.572Z,105.40
2019-01-24T07:31:10.979Z,107.10
2019-01-24T07:33:37.418Z,101.93
2019-01-24T07:36:04.277Z,94.53
2019-01-24T07:38:31.685Z,100.77
2019-01-24T07:40:57.929Z,104.43
2019-01-24T07:43:24.417Z,100.30
2019-01-24T07:45:50.827Z,105.33
2019-01-24T07:48:17.265Z,106.17
2019-01-24T07:50:43.789Z,109.40
2019-01-24T07:53:10.135Z,101.50
2019-01-24T07:55:38.596Z,90.63
2019-01-24T07:58:05.420Z,109.40
2019-01-24T08:00:31.796Z,100.70
2019-01-24T08:02:58.279Z,95.33
2019-01-24T08:05:25.113Z,103.47
2019-01-24T08:07:51.418Z,112.97
2019-01-24T08:10:18.479Z,99.60
2019-01-24T08:12:44.804Z,107.70
2019-01-24T08:15:12.049Z,101.07
2019-01-24T08:17:38.629Z,98.70
2019-01-24T08:20:06.144Z,103.90
2019-01-24T08:22:32.404Z,96.93
2019-01-24T08:24:58.726Z,110.77
2019-01-24T08:27:25.242Z,100.17
2019-01-24T08:29:51.748Z,100.83
2019-01-24T08:32:18.125Z,107.67
2019-01-24T08:34:44.645Z,95.03
2019-01-24T08:37:10.996Z,102.03
2019-01-24T08:39:37.546Z,109.93
2019-01-24T08:42:04.186Z,98.50
2019-01-24T08:44:30.477Z,109.03
2019-01-24T08:46:57.037Z,121.40
2019-01-24T08:49:23.360Z,113.10
2019-01-24T08:51:49.704Z,105.03
2019-01-24T08:54:15.942Z,120.20
2019-01-24T08:56:42.266Z,123.63
2019-01-24T08:59:08.854Z,137.17
2019-01-24T09:01:35.188Z,132.67
2019-01-24T09:04:01.490Z,111.13
2019-01-24T09:06:27.848Z,110.43
2019-01-24T09:08:54.201Z,96.80
2019-01-24T09:11:20.612Z,104.83
2019-01-24T09:13:47.173Z,94.23
2019-01-24T09:16:13.559Z,119.13
2019-01-24T09:18:39.928Z,108.33
2019-01-24T09:21:06.388Z,106.73
2019-01-24T09:23:32.663Z,103.10
2019-01-24T09:25:59.123Z,99.40
2019-01-24T09:28:25.657Z,98.93
2019-01-24T09:30:52.002Z,99.87
2019-01-24T09:33:18.304Z,95.43
2019-01-24T09:35:44.644Z,101.63
2019-01-24T09:38:10.984Z,102.27
2019-01-24T09:40:37.390Z,98.03
2019-01-24T09:43:04.167Z,95.80
2019-01-24T09:45:30.744Z,92.17
2019-01-24T09:47:57.995Z,101.60
2019-01-24T09:50:24.364Z,93.70
2019-01-24T09:52:50.813Z,98.77
2019-01-24T09:55:17.164Z,96.70
2019-01-24T09:57:43.525Z,95.10
2019-01-24T10:00:11.329Z,105.50
2019-01-24T10:02:37.653Z,101.27
2019-01-24T10:05:04.489Z,98.13
2019-01-24T10:07:30.897Z,108.63
2019-01-24T10:09:57.301Z,99.40
2019-01-24T10:12:23.823Z,95.70
2019-01-24T10:14:50.138Z,102.50
2019-01-24T10:17:16.609Z,95.00
2019-01-24T10:19:42.913Z,102.77
2019-01-24T10:22:09.274Z,101.40
2019-01-24T10:24:35.832Z,107.97
2019-01-24T10:27:02.146Z,96.50
2019-01-24T10:29:28.492Z,93.10
2019-01-24T10:31:54.826Z,96.70
2019-01-24T10:34:21.148Z,97.17
2019-01-24T10:36:47.565Z,138.00
2019-01-24T10:39:14.046Z,99.60
2019-01-24T10:41:40.429Z,99.03
2019-01-24T10:44:06.734Z,100.17
2019-01-24T10:46:33.261Z,97.27
2019-01-24T10:48:59.624Z,94.67
2019-01-24T10:51:25.897Z,94.37
2019-01-24T10:53:52.269Z,92.03
2019-01-24T10:56:19.807Z,90.57
2019-01-24T10:58:46.164Z,84.17
2019-01-24T11:01:12.594Z,89.07
2019-01-24T11:03:38.925Z,94.17
2019-01-24T11:06:05.331Z,99.17
2019-01-24T11:08:31.816Z,93.97
2019-01-24T11:10:58.210Z,96.80
2019-01-24T11:13:24.696Z,104.10
2019-01-24T11:15:51.069Z,93.97
2019-01-24T11:18:17.421Z,104.30
2019-01-24T11:20:43.755Z,99.73
2019-01-24T11:23:10.156Z,85.87
2019-01-24T11:25:36.617Z,91.77
2019-01-24T11:28:03.233Z,102.67
2019-01-24T11:30:30.084Z,94.50
2019-01-24T11:32:56.437Z,96.43
2019-01-24T11:35:26.992Z,88.43
2019-01-24T11:37:53.241Z,92.87
2019-01-24T11:40:19.585Z,93.53
2019-01-24T11:42:46.001Z,98.30
2019-01-24T11:45:12.676Z,100.47
2019-01-24T11:47:38.982Z,92.27
2019-01-24T11:50:06.908Z,97.83
2019-01-24T11:52:33.372Z,95.03
2019-01-24T11:54:59.708Z,93.70
2019-01-24T11:57:26.062Z,100.50
2019-01-24T11:59:52.621Z,87.97
2019-01-24T12:02:19.138Z,88.47
2019-01-24T12:04:45.662Z,89.13
2019-01-24T12:07:12.177Z,88.10
2019-01-24T12:09:38.544Z,87.07
2019-01-24T12:12:05.207Z,94.23
2019-01-24T12:14:31.656Z,97.53
2019-01-24T12:16:58.121Z,91.60
2019-01-24T12:19:24.725Z,92.97
2019-01-24T12:21:51.314Z,83.53
2019-01-24T12:24:17.886Z,94.47
2019-01-24T12:26:44.361Z,84.73
2019-01-24T12:29:10.725Z,89.67
2019-01-24T12:31:37.020Z,88.13
2019-01-24T12:34:03.443Z,89.17
2019-01-24T12:36:29.922Z,93.93
2019-01-24T12:38:56.216Z,87.33
2019-01-24T12:41:22.783Z,89.57
2019-01-24T12:43:49.282Z,88.40
2019-01-24T12:46:15.761Z,86.33
2019-01-24T12:48:42.150Z,94.57
2019-01-24T12:51:09.310Z,84.13
2019-01-24T12:53:35.748Z,86.33
2019-01-24T12:56:02.161Z,96.50
2019-01-24T12:58:28.615Z,86.87
2019-01-24T13:00:54.992Z,92.17
2019-01-24T13:03:21.593Z,98.13
2019-01-24T13:05:48.041Z,84.00
2019-01-24T13:08:15.720Z,89.97
2019-01-24T13:10:42.204Z,93.43
2019-01-24T13:13:10.622Z,92.07
2019-01-24T13:15:37.131Z,96.70
2019-01-24T13:18:04.098Z,91.10
2019-01-24T13:20:30.693Z,91.67
2019-01-24T13:22:57.343Z,99.20
2019-01-24T13:25:25.053Z,89.57
2019-01-24T13:27:51.633Z,92.10
2019-01-24T13:30:21.976Z,92.00
2019-01-24T13:32:48.340Z,96.47
2019-01-24T13:35:14.914Z,104.53
2019-01-24T13:37:41.306Z,96.43
2019-01-24T13:40:08.983Z,96.13
2019-01-24T13:42:35.559Z,100.13
2019-01-24T13:45:03.646Z,99.17
2019-01-24T13:47:30.295Z,95.07
2019-01-24T13:49:56.650Z,107.50
2019-01-24T13:52:23.074Z,101.13
2019-01-24T13:54:49.454Z,96.90
2019-01-24T13:57:16.134Z,93.53
2019-01-24T13:59:43.759Z,95.90
2019-01-24T14:02:13.386Z,102.47
2019-01-24T14:04:42.740Z,90.67
2019-01-24T14:07:09.761Z,86.77
2019-01-24T14:09:38.316Z,96.63
2019-01-24T14:12:05.792Z,97.93
2019-01-24T14:14:35.167Z,93.13
2019-01-24T14:17:01.963Z,94.90
2019-01-24T14:19:32.585Z,101.60
2019-01-24T14:21:59.273Z,106.10
2019-01-24T14:24:25.907Z,97.47
2019-01-24T14:26:52.705Z,96.60
2019-01-24T14:29:19.565Z,94.13
2019-01-24T14:31:46.444Z,92.20
2019-01-24T14:34:13.023Z,95.47
2019-01-24T14:36:40.624Z,97.90
2019-01-24T14:39:09.934Z,88.30
2019-01-24T14:41:36.947Z,93.43
2019-01-24T14:44:04.097Z,92.00
2019-01-24T14:46:30.738Z,87.77
2019-01-24T14:48:59.441Z,90.03
2019-01-24T14:51:26.079Z,94.97
2019-01-24T14:53:52.932Z,98.67
2019-01-24T14:56:19.594Z,90.33
2019-01-24T14:58:46.478Z,88.20
2019-01-24T15:01:20.977Z,85.93
2019-01-24T15:03:47.684Z,89.63
2019-01-24T15:06:14.482Z,98.40
2019-01-24T15:08:41.447Z,92.13
2019-01-24T15:11:08.158Z,97.63
2019-01-24T15:13:36.610Z,82.73
2019-01-24T15:16:04.137Z,103.20
2019-01-24T15:18:33.772Z,97.90
2019-01-24T15:21:00.673Z,95.93
2019-01-24T15:23:41.745Z,96.17
2019-01-24T15:26:11.542Z,90.17
2019-01-24T15:28:38.435Z,100.03
2019-01-24T15:31:10.618Z,90.23
2019-01-24T15:33:37.438Z,89.80
2019-01-24T15:36:04.118Z,91.53
2019-01-24T15:38:35.664Z,91.23
2019-01-24T15:41:02.238Z,93.27
2019-01-24T15:43:30.809Z,99.37
2019-01-24T15:46:03.623Z,87.87
2019-01-24T15:48:33.555Z,94.80
2019-01-24T15:51:08.213Z,88.17
2019-01-24T15:53:45.412Z,108.83
2019-01-24T15:56:11.498Z,92.00
2019-01-24T15:58:38.511Z,92.03
2019-01-24T16:01:10.672Z,97.17
2019-01-24T16:03:37.395Z,91.80
2019-01-24T16:06:06.157Z,97.37
2019-01-24T16:08:35.291Z,87.70
2019-01-24T16:11:07.795Z,96.40
2019-01-24T16:13:43.736Z,99.43
2019-01-24T16:16:13.530Z,102.47
2019-01-24T16:18:40.382Z,100.13
2019-01-24T16:21:08.135Z,85.27
2019-01-24T16:23:35.575Z,85.13
2019-01-24T16:26:10.335Z,92.43
2019-01-24T16:28:40.085Z,97.43
2019-01-24T16:31:08.897Z,87.40
2019-01-24T16:33:41.002Z,87.40
2019-01-24T16:36:12.556Z,89.37
2019-01-24T16:38:41.044Z,94.93
2019-01-24T16:41:12.733Z,97.50
2019-01-24T16:43:39.722Z,104.57
2019-01-24T16:46:07.077Z,90.97
2019-01-24T16:48:35.177Z,87.13
2019-01-24T16:51:03.014Z,98.33
2019-01-24T16:53:33.074Z,90.23
2019-01-24T16:56:06.093Z,94.40
2019-01-24T16:58:34.822Z,92.90
2019-01-24T17:01:09.064Z,88.97
2019-01-24T17:03:39.104Z,95.60
2019-01-24T17:06:06.167Z,99.37
2019-01-24T17:08:33.464Z,90.30
2019-01-24T17:11:00.473Z,96.63
2019-01-24T17:13:27.089Z,89.50
2019-01-24T17:15:54.156Z,100.10
2019-01-24T17:18:21.022Z,108.87
2019-01-24T17:20:47.825Z,100.10
2019-01-24T17:23:16.820Z,93.73
2019-01-24T17:25:44.881Z,92.30
2019-01-24T17:28:11.801Z,99.33
2019-01-24T17:30:44.641Z,99.10
2019-01-24T17:33:11.637Z,96.33
2019-01-24T17:35:38.640Z,83.07
2019-01-24T17:38:05.384Z,98.90
2019-01-24T17:40:32.673Z,89.77
2019-01-24T17:43:05.393Z,88.53
2019-01-24T17:45:40.376Z,90.47
2019-01-24T17:48:25.638Z,90.30
2019-01-24T17:50:56.285Z,89.70
2019-01-24T17:53:34.258Z,96.03
2019-01-24T17:56:01.736Z,101.07
2019-01-24T17:58:35.369Z,97.60
2019-01-24T18:04:21.643Z,93.23
2019-01-24T18:06:44.507Z,88.10
2019-01-24T18:09:11.439Z,94.03
2019-01-24T18:11:41.009Z,99.03
2019-01-24T18:14:07.917Z,97.13
2019-01-24T18:16:34.999Z,90.93
2019-01-24T18:19:01.814Z,93.60
2019-01-24T18:21:28.548Z,96.63
2019-01-24T18:23:55.212Z,84.93
2019-01-24T18:26:27.766Z,94.60
2019-01-24T18:28:54.346Z,79.83
2019-01-24T18:31:20.777Z,92.47
2019-01-24T18:33:47.321Z,84.03
2019-01-24T18:36:14.026Z,97.40
2019-01-24T18:38:40.534Z,86.33
2019-01-24T18:41:09.013Z,95.00
2019-01-24T18:43:35.720Z,93.80
2019-01-24T18:46:02.235Z,95.37
2019-01-24T18:48:29.039Z,100.90
2019-01-24T18:50:55.438Z,100.57
2019-01-24T18:53:22.009Z,104.00
2019-01-24T18:55:48.443Z,93.60
2019-01-24T18:58:15.387Z,96.30
2019-01-24T19:00:43.577Z,101.83
2019-01-24T19:03:12.902Z,108.90
2019-01-24T19:05:40.136Z,106.23
2019-01-24T19:08:06.722Z,102.17
2019-01-24T19:10:33.331Z,100.10
2019-01-24T19:13:02.479Z,102.77
2019-01-24T19:15:29.192Z,106.97
2019-01-24T19:17:55.782Z,111.57
2019-01-24T19:20:22.358Z,101.70
2019-01-24T19:22:48.845Z,98.53
2019-01-24T19:25:17.838Z,114.37
2019-01-24T19:27:44.301Z,111.60
2019-01-24T19:30:13.524Z,115.80
2019-01-24T19:32:40.096Z,107.60
2019-01-24T19:35:07.056Z,108.60
2019-01-24T19:37:35.339Z,99.63
2019-01-24T19:40:02.168Z,94.40
2019-01-24T19:42:29.174Z,94.63
2019-01-24T19:44:56.110Z,103.23
2019-01-24T19:47:24.942Z,114.43
2019-01-24T19:49:54.595Z,94.03
2019-01-24T19:52:21.629Z,98.77
2019-01-24T19:54:48.871Z,99.53
2019-01-24T19:57:17.314Z,93.37
2019-01-24T19:59:44.204Z,99.43
2019-01-24T20:02:11.147Z,93.10
2019-01-24T20:04:38.734Z,91.53
2019-01-24T20:07:05.503Z,94.60
2019-01-24T20:09:32.180Z,91.03
2019-01-24T20:11:58.762Z,93.70
2019-01-24T20:14:26.391Z,120.30
2019-01-24T20:16:52.910Z,93.23
2019-01-24T20:19:19.962Z,96.90
2019-01-24T20:21:46.555Z,105.50
2019-01-24T20:24:13.709Z,92.57
2019-01-24T20:26:40.378Z,95.70
2019-01-24T20:29:06.896Z,95.20
2019-01-24T20:31:33.422Z,94.13
2019-01-24T20:34:00.065Z,94.50
2019-01-24T20:36:27.694Z,104.47
2019-01-24T20:38:54.106Z,91.80
2019-01-24T20:41:20.942Z,96.63
2019-01-24T20:43:47.535Z,100.00
2019-01-24T20:46:15.637Z,94.17
2019-01-24T20:48:48.871Z,102.30
2019-01-24T20:51:15.344Z,92.10
2019-01-24T20:53:44.852Z,100.90
2019-01-24T20:56:12.929Z,97.07
2019-01-24T20:58:39.564Z,94.87
2019-01-24T21:01:06.045Z,100.40
2019-01-24T21:03:32.772Z,100.10
2019-01-24T21:05:59.426Z,97.93
2019-01-24T21:08:30.985Z,93.67
2019-01-24T21:11:00.413Z,98.10
2019-01-24T21:13:27.405Z,99.10
2019-01-24T21:15:54.384Z,90.53
2019-01-24T21:18:22.544Z,92.33
2019-01-24T21:20:49.449Z,108.20
2019-01-24T21:23:16.899Z,95.77
2019-01-24T21:25:44.093Z,97.33
2019-01-24T21:28:12.266Z,101.07
2019-01-24T21:30:38.920Z,98.13
2019-01-24T21:33:06.168Z,103.60
2019-01-24T21:35:32.778Z,98.73
2019-01-24T21:37:59.431Z,99.27
2019-01-24T21:40:26.046Z,87.93
2019-01-24T21:42:59.963Z,91.60
2019-01-24T21:45:27.911Z,93.87
2019-01-24T21:47:55.837Z,110.00
2019-01-24T21:50:27.168Z,96.50
2019-01-24T21:52:54.985Z,93.17
2019-01-24T21:55:22.027Z,89.43
2019-01-24T21:57:50.838Z,87.13
2019-01-24T22:00:18.656Z,92.80
2019-01-24T22:02:45.344Z,95.00
2019-01-24T22:05:20.993Z,101.23
2019-01-24T22:07:48.750Z,82.50
2019-01-24T22:10:29.961Z,92.50
2019-01-24T22:13:01.881Z,96.60
2019-01-24T22:15:28.706Z,90.50
2019-01-24T22:18:14.525Z,89.70
2019-01-24T22:20:55.685Z,86.93
2019-01-24T22:23:17.362Z,86.83
2019-01-24T22:25:44.115Z,99.33
2019-01-24T22:31:31.081Z,95.00
2019-01-24T22:33:57.802Z,100.93
2019-01-24T22:36:24.501Z,91.50
2019-01-24T22:38:51.225Z,93.40
2019-01-24T22:41:22.150Z,90.53
2019-01-24T22:43:48.634Z,84.13
2019-01-24T22:46:15.332Z,89.37
2019-01-24T22:48:48.227Z,93.67
2019-01-24T22:51:28.638Z,96.07
2019-01-24T22:53:57.925Z,95.97
2019-01-24T22:56:24.662Z,93.10
2019-01-24T22:58:51.353Z,101.47
2019-01-24T23:01:37.402Z,99.67
2019-01-24T23:04:18.597Z,95.63
2019-01-24T23:06:45.058Z,95.10
2019-01-24T23:09:14.826Z,93.63
2019-01-24T23:11:41.587Z,95.97
2019-01-24T23:14:08.560Z,96.67
2019-01-24T23:16:35.314Z,99.20
2019-01-24T23:19:02.347Z,88.40
2019-01-24T23:24:56.737Z,100.50
2019-01-24T23:27:23.599Z,114.97
2019-01-24T23:29:52.267Z,89.17
2019-01-24T23:32:25.191Z,101.10
2019-01-24T23:34:51.698Z,91.33
2019-01-24T23:37:18.047Z,88.27
2019-01-24T23:39:51.345Z,96.77
2019-01-24T23:42:38.468Z,93.30
2019-01-24T23:45:02.844Z,100.30
2019-01-24T23:47:29.207Z,105.13
2019-01-24T23:49:55.670Z,105.67
2019-01-24T23:52:45.178Z,103.40
2019-01-24T23:55:11.845Z,91.60
2019-01-24T23:57:51.768Z,88.60
